createdAt,value
2022-08-05T00:00:52.164Z,45.28
2022-08-05T00:03:55.089Z,46.07
2022-08-05T00:07:00.146Z,45.82
2022-08-05T00:10:27.091Z,46.00
2022-08-05T00:13:39.648Z,46.44
2022-08-05T00:16:52.497Z,46.55
2022-08-05T00:20:02.838Z,46.85
2022-08-05T00:23:12.460Z,47.50
2022-08-05T00:26:16.489Z,47.88
2022-08-05T00:29:25.711Z,47.66
2022-08-05T00:32:28.574Z,47.62
2022-08-05T00:35:33.209Z,47.77
2022-08-05T00:38:36.216Z,47.89
2022-08-05T00:41:52.217Z,47.90
2022-08-05T00:44:58.409Z,48.15
2022-08-05T00:48:05.804Z,48.62
2022-08-05T00:51:09.032Z,48.46
2022-08-05T00:54:31.594Z,48.61
2022-08-05T00:57:55.550Z,48.74
2022-08-05T01:00:57.181Z,48.73
2022-08-05T01:04:01.239Z,48.34
2022-08-05T01:07:05.244Z,48.63
2022-08-05T01:10:10.547Z,48.45
2022-08-05T01:13:57.332Z,48.61
2022-08-05T01:17:05.367Z,48.18
2022-08-05T01:20:27.058Z,48.40
2022-08-05T01:23:36.432Z,48.21
2022-08-05T01:27:00.123Z,48.08
2022-08-05T01:30:19.067Z,48.15
2022-08-05T01:33:53.503Z,48.17
2022-08-05T01:37:01.619Z,48.08
2022-08-05T01:40:06.817Z,47.91
2022-08-05T01:43:10.220Z,48.14
2022-08-05T01:46:41.925Z,48.01
2022-08-05T01:50:02.296Z,48.21
2022-08-05T01:53:13.953Z,47.98
2022-08-05T01:58:10.035Z,47.83
2022-08-05T01:59:41.255Z,47.93
2022-08-05T02:02:56.366Z,47.99
2022-08-05T02:06:33.328Z,48.72
2022-08-05T02:09:28.271Z,49.34
2022-08-05T02:12:44.899Z,49.30
2022-08-05T02:16:16.441Z,49.61
2022-08-05T02:19:47.440Z,49.45
2022-08-05T02:22:59.854Z,49.48
2022-08-05T02:26:05.757Z,49.32
2022-08-05T02:29:21.706Z,49.20
2022-08-05T02:32:31.658Z,49.02
2022-08-05T02:35:37.604Z,49.12
2022-08-05T02:38:42.956Z,49.09
2022-08-05T02:42:00.790Z,49.25
2022-08-05T02:45:04.885Z,49.33
2022-08-05T02:48:12.445Z,49.39
2022-08-05T02:51:16.273Z,49.48
2022-08-05T02:54:35.651Z,49.33
2022-08-05T02:58:11.881Z,49.47
2022-08-05T03:01:03.390Z,49.48
2022-08-05T03:04:13.991Z,49.19
2022-08-05T03:07:40.391Z,49.51
2022-08-05T03:11:01.116Z,49.71
2022-08-05T03:14:08.064Z,49.77
2022-08-05T03:17:11.100Z,49.34
2022-08-05T03:20:13.978Z,49.50
2022-08-05T03:23:18.129Z,49.80
2022-08-05T03:26:30.873Z,49.63
2022-08-05T03:29:44.818Z,49.27
2022-08-05T03:33:07.280Z,49.19
2022-08-05T03:36:12.115Z,48.62
2022-08-05T03:39:20.173Z,48.73
2022-08-05T03:42:32.376Z,48.90
2022-08-05T03:45:55.208Z,48.89
2022-08-05T03:48:59.641Z,49.18
2022-08-05T03:52:39.332Z,49.68
2022-08-05T03:56:05.915Z,50.16
2022-08-05T03:59:00.634Z,50.70
2022-08-05T04:02:04.801Z,50.56
2022-08-05T04:05:10.387Z,50.28
2022-08-05T04:08:14.609Z,49.22
2022-08-05T04:11:50.853Z,49.11
2022-08-05T04:14:57.628Z,48.75
2022-08-05T04:18:06.811Z,49.10
2022-08-05T04:21:11.129Z,49.03
2022-08-05T04:24:19.088Z,47.87
2022-08-05T04:27:41.882Z,49.37
2022-08-05T04:30:48.042Z,47.95
2022-08-05T04:34:18.576Z,49.39
2022-08-05T04:37:13.694Z,52.19
2022-08-05T04:40:17.056Z,51.06
2022-08-05T04:43:22.434Z,49.94
2022-08-05T04:46:28.149Z,49.51
2022-08-05T04:50:01.119Z,49.48
2022-08-05T04:52:54.181Z,48.95
2022-08-05T04:56:14.745Z,50.34
2022-08-05T04:59:22.995Z,51.36
2022-08-05T05:02:43.304Z,50.66
2022-08-05T05:06:39.187Z,48.94
2022-08-05T05:09:14.027Z,49.37
2022-08-05T05:12:19.906Z,48.24
2022-08-05T05:15:57.004Z,49.71
2022-08-05T05:19:16.375Z,48.62
2022-08-05T05:22:24.452Z,47.29
2022-08-05T05:25:32.564Z,48.19
2022-08-05T05:28:44.971Z,48.13
2022-08-05T05:31:48.002Z,47.79
2022-08-05T05:34:52.452Z,47.84
2022-08-05T05:37:59.464Z,47.00
2022-08-05T05:41:04.573Z,48.97
2022-08-05T05:44:35.794Z,47.48
2022-08-05T05:48:06.224Z,46.96
2022-08-05T05:50:57.873Z,47.76
2022-08-05T05:54:00.925Z,47.43
2022-08-05T05:57:03.701Z,47.08
2022-08-05T06:00:19.118Z,47.00
2022-08-05T06:03:40.197Z,46.65
2022-08-05T06:06:47.260Z,46.14
2022-08-05T06:10:04.349Z,45.66
2022-08-05T06:13:09.689Z,44.83
2022-08-05T06:16:31.754Z,44.77
2022-08-05T06:19:35.777Z,46.44
2022-08-05T06:22:40.562Z,45.44
2022-08-05T06:26:13.079Z,45.11
2022-08-05T06:29:25.041Z,44.37
2022-08-05T06:32:31.058Z,44.11
2022-08-05T06:36:03.715Z,44.54
2022-08-05T06:38:56.689Z,44.23
2022-08-05T06:42:04.000Z,44.28
2022-08-05T06:45:09.177Z,43.87
2022-08-05T06:48:50.373Z,42.90
2022-08-05T06:51:34.988Z,42.29
2022-08-05T06:54:38.876Z,41.21
2022-08-05T06:58:02.881Z,40.36
2022-08-05T07:01:06.457Z,40.43
2022-08-05T07:04:09.485Z,40.70
2022-08-05T07:07:12.818Z,40.65
2022-08-05T07:10:18.044Z,40.73
2022-08-05T07:13:58.792Z,40.47
2022-08-05T07:17:58.596Z,38.83
2022-08-05T07:20:37.215Z,38.91
2022-08-05T07:23:49.879Z,37.26
2022-08-05T07:26:53.497Z,36.44
2022-08-05T07:30:27.726Z,36.43
2022-08-05T07:33:36.477Z,35.53
2022-08-05T07:36:40.160Z,34.48
2022-08-05T07:40:26.359Z,34.93
2022-08-05T07:43:20.401Z,34.08
2022-08-05T07:46:28.411Z,34.35
2022-08-05T07:49:31.758Z,33.23
2022-08-05T07:52:44.255Z,31.79
2022-08-05T07:56:05.464Z,32.00
2022-08-05T07:59:09.964Z,30.75
2022-08-05T08:02:15.711Z,29.92
2022-08-05T08:05:20.582Z,29.25
2022-08-05T08:08:23.205Z,27.96
2022-08-05T08:11:47.061Z,28.43
2022-08-05T08:14:50.880Z,27.85
2022-08-05T08:17:54.805Z,27.35
2022-08-05T08:21:02.288Z,26.96
2022-08-05T08:24:13.552Z,27.43
2022-08-05T08:27:16.758Z,26.85
2022-08-05T08:30:33.919Z,26.49
2022-08-05T08:33:40.663Z,26.35
2022-08-05T08:36:49.121Z,25.74
2022-08-05T08:39:57.508Z,25.83
2022-08-05T08:45:17.109Z,25.30
2022-08-05T08:46:24.462Z,25.30
2022-08-05T08:50:06.197Z,24.84
2022-08-05T08:52:55.888Z,24.07
2022-08-05T08:56:04.015Z,24.47
2022-08-05T08:59:14.929Z,24.30
2022-08-05T09:02:24.340Z,23.91
2022-08-05T09:05:38.586Z,24.14
2022-08-05T09:08:52.455Z,24.15
2022-08-05T09:11:59.333Z,23.91
2022-08-05T09:15:09.562Z,22.90
2022-08-05T09:18:13.440Z,22.80
2022-08-05T09:21:20.688Z,22.40
2022-08-05T09:24:39.051Z,22.01
2022-08-05T09:28:05.252Z,22.44
2022-08-05T09:32:35.962Z,22.00
2022-08-05T09:34:48.443Z,22.03
2022-08-05T09:38:12.072Z,21.70
2022-08-05T09:41:16.455Z,21.61
2022-08-05T09:44:42.533Z,21.34
2022-08-05T09:47:55.171Z,20.80
2022-08-05T09:51:03.438Z,20.39
2022-08-05T09:54:21.417Z,19.95
2022-08-05T09:57:35.190Z,19.89
2022-08-05T10:00:38.632Z,19.56
2022-08-05T10:03:58.749Z,19.83
2022-08-05T10:07:19.481Z,19.68
2022-08-05T10:10:32.672Z,19.36
2022-08-05T10:13:45.536Z,19.05
2022-08-05T10:16:53.123Z,19.55
2022-08-05T10:20:04.020Z,18.38
2022-08-05T10:23:34.091Z,18.70
2022-08-05T10:26:51.654Z,18.84
2022-08-05T10:31:19.913Z,18.56
2022-08-05T10:33:37.099Z,17.96
2022-08-05T10:36:42.949Z,17.67
2022-08-05T10:39:59.442Z,17.30
2022-08-05T10:43:35.570Z,16.99
2022-08-05T10:46:50.709Z,17.33
2022-08-05T10:50:32.276Z,17.47
2022-08-05T10:53:39.426Z,16.82
2022-08-05T10:56:53.483Z,16.72
2022-08-05T11:00:19.071Z,16.09
2022-08-05T11:03:26.266Z,16.40
2022-08-05T11:06:31.048Z,17.07
2022-08-05T11:09:47.251Z,16.14
2022-08-05T11:12:50.852Z,15.67
2022-08-05T11:16:47.427Z,15.85
2022-08-05T11:20:10.007Z,16.09
2022-08-05T11:23:33.273Z,16.13
2022-08-05T11:26:36.482Z,16.37
2022-08-05T11:29:41.019Z,15.98
2022-08-05T11:32:43.701Z,16.22
2022-08-05T11:36:08.238Z,15.41
2022-08-05T11:39:14.372Z,14.99
2022-08-05T11:42:23.567Z,14.72
2022-08-05T11:46:29.865Z,14.64
2022-08-05T11:48:54.333Z,14.72
2022-08-05T11:51:57.617Z,14.91
2022-08-05T11:55:07.283Z,15.22
2022-08-05T11:58:12.050Z,15.33
2022-08-05T12:01:21.050Z,15.24
2022-08-05T12:04:26.143Z,15.06
2022-08-05T12:08:03.300Z,14.78
2022-08-05T12:10:59.428Z,15.06
2022-08-05T12:14:08.590Z,14.87
2022-08-05T12:18:03.311Z,14.69
2022-08-05T12:20:38.824Z,14.78
2022-08-05T12:23:52.783Z,14.62
2022-08-05T12:26:56.513Z,14.50
2022-08-05T12:30:15.450Z,14.98
2022-08-05T12:33:27.579Z,15.72
2022-08-05T12:36:31.141Z,15.16
2022-08-05T12:39:37.235Z,15.37
2022-08-05T12:42:41.544Z,14.45
2022-08-05T12:45:54.792Z,15.06
2022-08-05T12:49:00.692Z,14.31
2022-08-05T12:52:12.472Z,14.19
2022-08-05T12:55:26.325Z,15.24
2022-08-05T12:58:50.396Z,15.06
2022-08-05T13:02:07.087Z,15.05
2022-08-05T13:05:11.155Z,14.75
2022-08-05T13:08:18.591Z,14.90
2022-08-05T13:11:35.071Z,15.46
2022-08-05T13:14:47.943Z,15.38
2022-08-05T13:18:08.554Z,15.56
2022-08-05T13:21:11.404Z,14.99
2022-08-05T13:24:36.513Z,15.26
2022-08-05T13:27:46.709Z,16.04
2022-08-05T13:30:53.181Z,15.78
2022-08-05T13:34:21.145Z,16.01
2022-08-05T13:37:34.664Z,16.35
2022-08-05T13:40:49.955Z,16.84
2022-08-05T13:43:55.453Z,16.58
2022-08-05T13:47:01.827Z,16.65
2022-08-05T13:50:11.202Z,16.52
2022-08-05T13:53:16.026Z,16.59
2022-08-05T13:56:19.203Z,16.68
2022-08-05T13:59:25.000Z,16.57
2022-08-05T14:02:29.787Z,15.95
2022-08-05T14:06:24.565Z,16.75
2022-08-05T14:08:57.005Z,16.42
2022-08-05T14:12:17.299Z,16.46
2022-08-05T14:16:07.885Z,16.19
2022-08-05T14:18:43.827Z,16.43
2022-08-05T14:22:10.446Z,17.10
2022-08-05T14:25:19.204Z,17.05
2022-08-05T14:28:26.323Z,17.18
2022-08-05T14:32:03.972Z,17.26
2022-08-05T14:34:56.847Z,17.76
2022-08-05T14:38:01.202Z,17.53
2022-08-05T14:41:07.464Z,18.24
2022-08-05T14:44:20.541Z,17.85
2022-08-05T14:47:58.396Z,17.75
2022-08-05T14:50:46.365Z,17.88
2022-08-05T14:54:26.791Z,18.25
2022-08-05T14:57:14.334Z,18.35
2022-08-05T15:00:20.034Z,17.98
2022-08-05T15:03:23.050Z,17.78
2022-08-05T15:06:27.988Z,17.99
2022-08-05T15:09:51.919Z,18.33
2022-08-05T15:13:03.640Z,18.01
2022-08-05T15:16:06.807Z,18.39
2022-08-05T15:19:23.305Z,19.34
2022-08-05T15:22:28.406Z,19.00
2022-08-05T15:25:41.363Z,18.90
2022-08-05T15:28:54.091Z,18.92
2022-08-05T15:31:56.624Z,18.71
2022-08-05T15:34:59.553Z,19.10
2022-08-05T15:38:34.854Z,19.23
2022-08-05T15:41:55.837Z,19.95
2022-08-05T15:44:58.290Z,19.92
2022-08-05T15:48:02.473Z,20.08
2022-08-05T15:51:05.872Z,20.20
2022-08-05T15:54:09.054Z,20.75
2022-08-05T15:57:17.707Z,20.82
2022-08-05T16:00:30.548Z,20.20
2022-08-05T16:03:35.668Z,20.78
2022-08-05T16:06:43.559Z,20.58
2022-08-05T16:09:46.841Z,20.95
2022-08-05T16:12:49.641Z,21.18
2022-08-05T16:15:52.593Z,22.17
2022-08-05T16:18:55.355Z,21.52
2022-08-05T16:22:03.450Z,21.84
2022-08-05T16:25:09.905Z,21.52
2022-08-05T16:28:14.155Z,21.71
2022-08-05T16:31:18.341Z,21.78
2022-08-05T16:34:23.178Z,22.02
2022-08-05T16:38:16.394Z,22.81
2022-08-05T16:40:55.358Z,22.72
2022-08-05T16:44:02.858Z,22.86
2022-08-05T16:47:07.013Z,22.61
2022-08-05T16:50:30.107Z,22.55
2022-08-05T16:54:05.649Z,23.13
2022-08-05T16:56:56.956Z,23.24
2022-08-05T17:00:08.290Z,24.20
2022-08-05T17:03:15.248Z,24.89
2022-08-05T17:06:24.527Z,24.84
2022-08-05T17:09:30.538Z,24.54
2022-08-05T17:12:51.514Z,23.99
2022-08-05T17:16:02.742Z,24.93
2022-08-05T17:19:17.917Z,25.25
2022-08-05T17:22:25.644Z,26.02
2022-08-05T17:25:39.661Z,25.60
2022-08-05T17:28:42.841Z,25.09
2022-08-05T17:31:58.191Z,24.93
2022-08-05T17:35:02.090Z,25.04
2022-08-05T17:38:08.309Z,24.90
2022-08-05T17:41:22.797Z,25.86
2022-08-05T17:44:33.789Z,25.37
2022-08-05T17:47:38.345Z,25.38
2022-08-05T17:50:42.088Z,24.96
2022-08-05T17:53:45.922Z,25.98
2022-08-05T17:56:57.441Z,25.56
2022-08-05T18:00:04.885Z,25.08
2022-08-05T18:03:08.950Z,25.07
2022-08-05T18:06:15.203Z,25.70
2022-08-05T18:09:18.553Z,25.64
2022-08-05T18:12:23.755Z,26.11
2022-08-05T18:15:27.660Z,26.58
2022-08-05T18:18:34.029Z,26.79
2022-08-05T18:22:09.323Z,26.58
2022-08-05T18:25:06.718Z,26.78
2022-08-05T18:28:09.882Z,26.98
2022-08-05T18:31:12.714Z,27.18
2022-08-05T18:34:21.729Z,26.75
2022-08-05T18:37:34.416Z,27.26
2022-08-05T18:41:58.004Z,28.64
2022-08-05T18:44:07.975Z,27.84
2022-08-05T18:47:12.285Z,28.13
2022-08-05T18:50:45.287Z,27.64
2022-08-05T18:53:50.827Z,27.63
2022-08-05T18:56:53.385Z,28.87
2022-08-05T19:00:02.406Z,28.62
2022-08-05T19:03:06.137Z,29.20
2022-08-05T19:06:19.119Z,29.32
2022-08-05T19:09:25.432Z,29.52
2022-08-05T19:12:29.789Z,29.51
2022-08-05T19:15:58.976Z,29.47
2022-08-05T19:18:57.144Z,30.33
2022-08-05T19:21:59.838Z,29.99
2022-08-05T19:25:04.172Z,29.89
2022-08-05T19:28:06.824Z,30.05
2022-08-05T19:31:13.474Z,30.22
2022-08-05T19:34:20.445Z,30.45
2022-08-05T19:37:34.847Z,30.33
2022-08-05T19:40:48.689Z,31.02
2022-08-05T19:44:06.955Z,30.98
2022-08-05T19:47:16.624Z,29.34
2022-08-05T19:50:20.145Z,29.09
2022-08-05T19:54:03.411Z,28.99
2022-08-05T19:56:45.673Z,29.14
2022-08-05T19:59:59.549Z,29.81
2022-08-05T20:03:14.014Z,29.89
2022-08-05T20:06:28.622Z,29.25
2022-08-05T20:09:54.909Z,29.46
2022-08-05T20:12:55.304Z,29.32
2022-08-05T20:15:59.624Z,29.51
2022-08-05T20:19:03.460Z,29.90
2022-08-05T20:22:05.989Z,29.96
2022-08-05T20:25:12.525Z,30.09
2022-08-05T20:28:15.062Z,31.25
2022-08-05T20:31:21.688Z,31.61
2022-08-05T20:34:25.672Z,31.21
2022-08-05T20:38:06.115Z,31.17
2022-08-05T20:40:51.319Z,32.78
2022-08-05T20:43:59.928Z,31.84
2022-08-05T20:47:06.728Z,31.82
2022-08-05T20:50:11.959Z,31.99
2022-08-05T20:53:36.800Z,31.55
2022-08-05T20:56:41.911Z,32.91
2022-08-05T21:00:10.336Z,32.52
2022-08-05T21:03:08.394Z,33.83
2022-08-05T21:06:28.305Z,33.73
2022-08-05T21:09:33.781Z,34.26
2022-08-05T21:12:39.704Z,34.38
2022-08-05T21:16:01.314Z,34.15
2022-08-05T21:19:04.365Z,33.92
2022-08-05T21:22:07.353Z,35.00
2022-08-05T21:25:12.448Z,35.08
2022-08-05T21:28:18.458Z,35.72
2022-08-05T21:31:26.057Z,35.26
2022-08-05T21:34:43.976Z,35.56
2022-08-05T21:37:58.684Z,34.46
2022-08-05T21:41:01.662Z,34.87
2022-08-05T21:44:07.036Z,34.85
2022-08-05T21:47:17.308Z,36.06
2022-08-05T21:50:33.339Z,36.07
2022-08-05T21:53:37.501Z,36.48
2022-08-05T21:56:44.476Z,36.27
2022-08-05T22:00:03.993Z,36.74
2022-08-05T22:03:15.369Z,37.46
2022-08-05T22:06:22.183Z,37.80
2022-08-05T22:09:25.476Z,38.03
2022-08-05T22:12:50.530Z,37.97
2022-08-05T22:16:04.632Z,37.85
2022-08-05T22:19:15.126Z,37.92
2022-08-05T22:22:53.650Z,38.18
2022-08-05T22:26:16.956Z,38.08
2022-08-05T22:29:26.191Z,38.64
2022-08-05T22:32:30.003Z,38.93
2022-08-05T22:35:48.616Z,39.05
2022-08-05T22:38:53.735Z,38.35
2022-08-05T22:42:11.141Z,37.09
2022-08-05T22:45:16.449Z,36.45
2022-08-05T22:48:22.169Z,36.57
2022-08-05T22:52:03.127Z,36.94
2022-08-05T22:54:52.677Z,37.67
2022-08-05T22:57:56.511Z,38.26
2022-08-05T23:01:00.794Z,38.04
2022-08-05T23:04:04.059Z,38.85
2022-08-05T23:07:08.221Z,39.17
2022-08-05T23:10:11.816Z,39.44
2022-08-05T23:13:14.416Z,39.30
2022-08-05T23:16:26.070Z,39.51
2022-08-05T23:19:38.388Z,39.47
2022-08-05T23:22:47.855Z,39.86
2022-08-05T23:25:55.130Z,39.81
2022-08-05T23:28:58.442Z,40.04
2022-08-05T23:32:01.261Z,40.08
2022-08-05T23:35:05.465Z,40.04
2022-08-05T23:38:08.333Z,40.30
2022-08-05T23:41:15.093Z,40.30
2022-08-05T23:44:19.785Z,40.36
2022-08-05T23:47:27.892Z,40.48
2022-08-05T23:50:36.201Z,40.50
2022-08-05T23:53:46.725Z,40.65
2022-08-05T23:56:49.829Z,40.68
